createdAt,value
2022-10-18T00:02:57.210Z,101324.26
2022-10-18T00:06:05.020Z,101322.45
2022-10-18T00:09:11.652Z,101316.41
2022-10-18T00:12:18.327Z,101318.45
2022-10-18T00:15:25.084Z,101317.88
2022-10-18T00:18:31.777Z,101321.33
2022-10-18T00:21:38.490Z,101319.55
2022-10-18T00:24:45.110Z,101323.58
2022-10-18T00:27:52.992Z,101323.04
2022-10-18T00:30:59.744Z,101324.75
2022-10-18T00:34:09.071Z,101327.75
2022-10-18T00:37:15.964Z,101328.39
2022-10-18T00:40:22.493Z,101325.54
2022-10-18T00:43:29.356Z,101323.76
2022-10-18T00:46:37.867Z,101322.96
2022-10-18T00:49:47.723Z,101321.47
2022-10-18T00:53:01.759Z,101321.61
2022-10-18T00:56:09.283Z,101321.25
2022-10-18T00:59:17.928Z,101321.68
2022-10-18T01:02:24.984Z,101320.48
2022-10-18T01:05:31.723Z,101323.23
2022-10-18T01:08:51.319Z,101319.48
2022-10-18T01:12:14.263Z,101322.73
2022-10-18T01:15:27.181Z,101317.13
2022-10-18T01:18:41.393Z,101320.06
2022-10-18T01:21:52.755Z,101320.64
2022-10-18T01:25:07.935Z,101324.09
2022-10-18T01:28:33.383Z,101326.46
2022-10-18T01:31:46.291Z,101324.80
2022-10-18T01:34:58.553Z,101327.17
2022-10-18T01:38:11.453Z,101323.75
2022-10-18T01:41:21.568Z,101325.61
2022-10-18T01:44:30.710Z,101317.21
2022-10-18T01:47:38.088Z,101312.90
2022-10-18T01:50:44.925Z,101310.17
2022-10-18T01:53:51.654Z,101310.27
2022-10-18T01:57:03.913Z,101315.81
2022-10-18T02:00:18.346Z,101322.27
2022-10-18T02:03:28.712Z,101317.79
2022-10-18T02:06:41.604Z,101314.86
2022-10-18T02:09:52.933Z,101314.35
2022-10-18T02:13:01.034Z,101314.78
2022-10-18T02:16:11.564Z,101318.44
2022-10-18T02:22:34.679Z,101322.41
2022-10-18T02:25:41.933Z,101319.85
2022-10-18T02:28:49.082Z,101322.25
2022-10-18T02:32:01.946Z,101324.45
2022-10-18T02:35:12.673Z,101325.47
2022-10-18T02:38:24.908Z,101327.05
2022-10-18T02:41:33.682Z,101326.26
2022-10-18T02:44:43.326Z,101327.58
2022-10-18T02:47:50.338Z,101327.35
2022-10-18T02:50:56.888Z,101327.76
2022-10-18T02:54:03.699Z,101325.30
2022-10-18T02:57:10.449Z,101326.91
2022-10-18T03:00:18.335Z,101335.08
2022-10-18T03:03:25.162Z,101333.37
2022-10-18T03:06:32.219Z,101330.81
2022-10-18T03:09:41.081Z,101334.24
2022-10-18T03:12:47.871Z,101343.28
2022-10-18T03:15:54.573Z,101339.27
2022-10-18T03:19:01.243Z,101340.40
2022-10-18T03:22:08.003Z,101342.00
2022-10-18T03:25:15.391Z,101341.45
2022-10-18T03:28:22.059Z,101339.61
2022-10-18T03:31:28.793Z,101333.27
2022-10-18T03:34:35.376Z,101342.90
2022-10-18T03:37:42.076Z,101343.66
2022-10-18T03:40:48.665Z,101340.77
2022-10-18T03:43:55.271Z,101352.20
2022-10-18T03:47:01.906Z,101356.95
2022-10-18T03:50:09.711Z,101353.48
2022-10-18T03:53:16.761Z,101358.06
2022-10-18T03:56:23.476Z,101352.74
2022-10-18T03:59:30.084Z,101357.81
2022-10-18T04:02:36.922Z,101357.23
2022-10-18T04:05:43.650Z,101352.71
2022-10-18T04:08:50.207Z,101354.80
2022-10-18T04:11:56.865Z,101356.91
2022-10-18T04:15:03.416Z,101353.14
2022-10-18T04:18:10.303Z,101352.89
2022-10-18T04:21:17.981Z,101356.03
2022-10-18T04:24:24.782Z,101352.81
2022-10-18T04:27:31.982Z,101348.07
2022-10-18T04:30:39.184Z,101351.33
2022-10-18T04:33:45.939Z,101344.13
2022-10-18T04:36:52.634Z,101342.83
2022-10-18T04:40:00.003Z,101346.80
2022-10-18T04:43:06.754Z,101348.39
2022-10-18T04:46:13.397Z,101350.84
2022-10-18T04:49:20.091Z,101347.89
2022-10-18T04:52:26.745Z,101349.52
2022-10-18T04:55:34.549Z,101341.59
2022-10-18T04:58:41.195Z,101343.49
2022-10-18T05:01:48.988Z,101345.64
2022-10-18T05:04:55.719Z,101336.91
2022-10-18T05:08:02.270Z,101335.20
2022-10-18T05:14:16.788Z,101337.52
2022-10-18T05:17:23.406Z,101341.20
2022-10-18T05:20:30.065Z,101338.09
2022-10-18T05:23:36.740Z,101342.27
2022-10-18T05:26:43.353Z,101339.98
2022-10-18T05:29:50.102Z,101337.13
2022-10-18T05:32:56.704Z,101333.25
2022-10-18T05:36:03.274Z,101330.48
2022-10-18T05:39:09.822Z,101331.09
2022-10-18T05:42:16.343Z,101327.89
2022-10-18T05:45:23.049Z,101328.75
2022-10-18T05:48:29.642Z,101328.66
2022-10-18T05:51:36.182Z,101328.51
2022-10-18T05:54:43.078Z,101327.52
2022-10-18T05:57:53.048Z,101330.55
2022-10-18T06:01:02.381Z,101335.48
2022-10-18T06:04:07.921Z,101338.37
2022-10-18T06:07:14.837Z,101333.69
2022-10-18T06:10:21.481Z,101339.24
2022-10-18T06:13:31.092Z,101340.63
2022-10-18T06:16:39.109Z,101349.89
2022-10-18T06:19:45.893Z,101352.44
2022-10-18T06:22:54.675Z,101355.15
2022-10-18T06:26:04.136Z,101365.56
2022-10-18T06:29:09.525Z,101378.43
2022-10-18T06:32:16.326Z,101380.81
2022-10-18T06:35:22.977Z,101383.13
2022-10-18T06:38:30.742Z,101387.44
2022-10-18T06:41:37.364Z,101393.15
2022-10-18T06:44:55.095Z,101392.15
2022-10-18T06:48:02.184Z,101393.77
2022-10-18T06:51:09.855Z,101400.72
2022-10-18T06:54:18.504Z,101400.01
2022-10-18T06:57:25.683Z,101392.61
2022-10-18T07:00:32.265Z,101397.94
2022-10-18T07:03:39.074Z,101403.38
2022-10-18T07:06:45.700Z,101401.20
2022-10-18T07:09:52.241Z,101405.19
2022-10-18T07:13:13.544Z,101406.41
2022-10-18T07:16:25.648Z,101405.67
2022-10-18T07:19:33.081Z,101405.50
2022-10-18T07:22:39.989Z,101404.20
2022-10-18T07:25:47.026Z,101402.23
2022-10-18T07:28:58.009Z,101400.39
2022-10-18T07:32:05.237Z,101402.83
2022-10-18T07:38:24.110Z,101407.11
2022-10-18T07:41:33.323Z,101399.83
2022-10-18T07:44:39.334Z,101396.67
2022-10-18T07:47:46.153Z,101396.22
2022-10-18T07:50:53.126Z,101389.77
2022-10-18T07:54:00.211Z,101388.46
2022-10-18T07:57:07.952Z,101386.70
2022-10-18T08:00:16.229Z,101386.32
2022-10-18T08:03:23.314Z,101383.73
2022-10-18T08:06:30.155Z,101381.42
2022-10-18T08:09:36.879Z,101377.18
2022-10-18T08:12:43.620Z,101372.38
2022-10-18T08:15:50.541Z,101361.18
2022-10-18T08:18:58.282Z,101358.23
2022-10-18T08:22:05.036Z,101358.62
2022-10-18T08:25:12.392Z,101353.27
2022-10-18T08:28:19.060Z,101347.23
2022-10-18T08:31:25.931Z,101346.67
2022-10-18T08:34:33.900Z,101347.48
2022-10-18T08:37:45.491Z,101345.88
2022-10-18T08:40:52.427Z,101351.15
2022-10-18T08:44:10.329Z,101350.66
2022-10-18T08:47:20.582Z,101354.48
2022-10-18T08:50:34.945Z,101352.95
2022-10-18T08:53:53.056Z,101354.13
2022-10-18T08:57:02.673Z,101349.64
2022-10-18T09:00:18.260Z,101353.23
2022-10-18T09:03:45.182Z,101349.02
2022-10-18T09:07:03.288Z,101347.14
2022-10-18T09:10:22.514Z,101342.28
2022-10-18T09:13:37.804Z,101345.40
2022-10-18T09:16:51.656Z,101351.65
2022-10-18T09:20:12.186Z,101354.90
2022-10-18T09:23:25.109Z,101351.15
2022-10-18T09:26:40.713Z,101352.02
2022-10-18T09:29:59.706Z,101354.63
2022-10-18T09:33:24.596Z,101360.96
2022-10-18T09:36:35.603Z,101364.71
2022-10-18T09:39:43.577Z,101362.34
2022-10-18T09:42:56.811Z,101351.47
2022-10-18T09:46:04.883Z,101343.80
2022-10-18T09:49:18.139Z,101340.20
2022-10-18T09:52:31.679Z,101343.16
2022-10-18T09:55:50.336Z,101348.41
2022-10-18T09:58:57.152Z,101355.16
2022-10-18T10:02:08.101Z,101359.20
2022-10-18T10:05:17.107Z,101354.88
2022-10-18T10:08:35.668Z,101348.80
2022-10-18T10:11:47.883Z,101345.53
2022-10-18T10:14:54.748Z,101345.59
2022-10-18T10:18:04.993Z,101339.23
2022-10-18T10:21:17.246Z,101335.79
2022-10-18T10:24:44.246Z,101326.05
2022-10-18T10:27:50.884Z,101321.89
2022-10-18T10:31:17.291Z,101324.52
2022-10-18T10:34:25.414Z,101336.36
2022-10-18T10:37:38.868Z,101339.59
2022-10-18T10:40:50.323Z,101332.81
2022-10-18T10:43:57.430Z,101330.16
2022-10-18T10:47:06.014Z,101337.67
2022-10-18T10:50:14.960Z,101344.91
2022-10-18T10:53:39.961Z,101341.52
2022-10-18T10:56:56.730Z,101333.87
2022-10-18T11:00:04.913Z,101321.38
2022-10-18T11:03:28.947Z,101309.44
2022-10-18T11:06:47.737Z,101309.07
2022-10-18T11:10:02.454Z,101312.95
2022-10-18T11:13:24.237Z,101296.60
2022-10-18T11:16:37.023Z,101284.02
2022-10-18T11:19:53.869Z,101278.58
2022-10-18T11:23:04.787Z,101270.40
2022-10-18T11:26:22.041Z,101268.79
2022-10-18T11:29:56.087Z,101267.21
2022-10-18T11:33:13.351Z,101260.98
2022-10-18T11:36:26.374Z,101256.52
2022-10-18T11:39:44.621Z,101251.09
2022-10-18T11:42:59.915Z,101244.38
2022-10-18T11:46:13.265Z,101237.87
2022-10-18T11:49:44.994Z,101241.38
2022-10-18T11:53:02.194Z,101238.17
2022-10-18T11:56:17.531Z,101244.85
2022-10-18T11:59:38.007Z,101278.88
2022-10-18T12:02:58.981Z,101298.33
2022-10-18T12:06:13.476Z,101290.77
2022-10-18T12:09:28.841Z,101285.77
2022-10-18T12:12:43.144Z,101272.12
2022-10-18T12:15:50.976Z,101261.42
2022-10-18T12:19:01.122Z,101253.38
2022-10-18T12:22:19.911Z,101259.50
2022-10-18T12:25:29.312Z,101246.91
2022-10-18T12:28:48.339Z,101241.39
2022-10-18T12:31:58.394Z,101240.52
2022-10-18T12:35:13.025Z,101244.02
2022-10-18T12:38:36.789Z,101232.67
2022-10-18T12:41:48.203Z,101218.53
2022-10-18T12:45:05.577Z,101217.39
2022-10-18T12:48:30.976Z,101220.45
2022-10-18T12:51:50.300Z,101231.00
2022-10-18T12:55:22.583Z,101235.99
2022-10-18T12:58:33.699Z,101239.67
2022-10-18T13:02:20.700Z,101239.26
2022-10-18T13:05:56.712Z,101239.64
2022-10-18T13:09:23.550Z,101247.39
2022-10-18T13:12:56.560Z,101247.26
2022-10-18T13:16:12.948Z,101251.90
2022-10-18T13:19:26.566Z,101252.20
2022-10-18T13:22:49.488Z,101247.60
2022-10-18T13:26:03.604Z,101242.48
2022-10-18T13:29:31.992Z,101238.17
2022-10-18T13:32:48.298Z,101227.92
2022-10-18T13:35:57.940Z,101221.59
2022-10-18T13:39:07.324Z,101216.02
2022-10-18T13:42:34.792Z,101207.97
2022-10-18T13:46:00.496Z,101214.60
2022-10-18T13:49:29.136Z,101222.67
2022-10-18T13:52:53.192Z,101224.07
2022-10-18T13:56:47.301Z,101235.58
2022-10-18T14:00:05.689Z,101242.41
2022-10-18T14:07:06.139Z,101231.97
2022-10-18T14:10:33.345Z,101229.20
2022-10-18T14:13:53.177Z,101228.39
2022-10-18T14:17:07.978Z,101225.41
2022-10-18T14:20:29.416Z,101218.20
2022-10-18T14:23:42.816Z,101216.06
2022-10-18T14:27:11.340Z,101210.25
2022-10-18T14:30:21.314Z,101200.42
2022-10-18T14:33:36.854Z,101189.56
2022-10-18T14:36:47.304Z,101180.39
2022-10-18T14:39:54.239Z,101168.77
2022-10-18T14:43:05.205Z,101170.48
2022-10-18T14:46:17.756Z,101179.20
2022-10-18T14:49:24.441Z,101188.42
2022-10-18T14:52:35.671Z,101201.52
2022-10-18T14:55:44.190Z,101217.98
2022-10-18T14:58:52.326Z,101227.69
2022-10-18T15:02:02.156Z,101234.80
2022-10-18T15:05:19.374Z,101242.36
2022-10-18T15:08:28.142Z,101232.33
2022-10-18T15:11:35.046Z,101240.83
2022-10-18T15:14:43.396Z,101237.07
2022-10-18T15:17:52.562Z,101232.18
2022-10-18T15:21:20.438Z,101236.09
2022-10-18T15:24:34.632Z,101237.46
2022-10-18T15:27:45.026Z,101231.64
2022-10-18T15:30:51.864Z,101228.11
2022-10-18T15:34:11.775Z,101232.74
2022-10-18T15:37:30.206Z,101233.11
2022-10-18T15:40:43.307Z,101241.14
2022-10-18T15:43:50.263Z,101241.23
2022-10-18T15:47:10.504Z,101237.16
2022-10-18T15:50:41.130Z,101239.48
2022-10-18T15:53:54.327Z,101239.39
2022-10-18T15:57:07.978Z,101237.51
2022-10-18T16:00:21.629Z,101236.32
2022-10-18T16:03:29.339Z,101236.46
2022-10-18T16:06:38.641Z,101235.42
2022-10-18T16:09:45.570Z,101231.02
2022-10-18T16:12:52.265Z,101227.02
2022-10-18T16:16:00.305Z,101233.36
2022-10-18T16:19:07.363Z,101238.08
2022-10-18T16:22:16.180Z,101241.69
2022-10-18T16:25:22.954Z,101243.63
2022-10-18T16:28:31.892Z,101253.27
2022-10-18T16:31:38.702Z,101262.95
2022-10-18T16:34:45.450Z,101254.69
2022-10-18T16:37:52.377Z,101255.02
2022-10-18T16:40:59.682Z,101262.15
2022-10-18T16:44:06.602Z,101261.23
2022-10-18T16:47:13.950Z,101262.14
2022-10-18T16:50:22.892Z,101262.73
2022-10-18T16:53:29.942Z,101264.65
2022-10-18T16:56:36.780Z,101277.45
2022-10-18T16:59:43.526Z,101282.52
2022-10-18T17:02:50.835Z,101285.72
2022-10-18T17:05:57.845Z,101281.20
2022-10-18T17:09:04.727Z,101286.83
2022-10-18T17:12:11.380Z,101292.84
2022-10-18T17:15:18.416Z,101294.64
2022-10-18T17:18:27.591Z,101294.15
2022-10-18T17:21:34.817Z,101297.50
2022-10-18T17:24:41.459Z,101302.95
2022-10-18T17:27:48.555Z,101298.95
2022-10-18T17:30:55.260Z,101297.29
2022-10-18T17:34:02.536Z,101293.69
2022-10-18T17:37:11.542Z,101294.55
2022-10-18T17:40:18.605Z,101295.90
2022-10-18T17:43:25.203Z,101301.50
2022-10-18T17:46:31.999Z,101306.75
2022-10-18T17:49:38.713Z,101304.09
2022-10-18T17:52:47.077Z,101306.10
2022-10-18T17:56:02.333Z,101303.05
2022-10-18T17:59:09.661Z,101305.64
2022-10-18T18:02:16.583Z,101302.59
2022-10-18T18:05:23.308Z,101303.52
2022-10-18T18:08:30.811Z,101306.40
2022-10-18T18:11:39.278Z,101306.98
2022-10-18T18:14:46.120Z,101311.43
2022-10-18T18:17:57.056Z,101313.77
2022-10-18T18:21:04.522Z,101308.01
2022-10-18T18:24:12.597Z,101302.86
2022-10-18T18:27:19.258Z,101303.45
2022-10-18T18:30:26.005Z,101303.41
2022-10-18T18:33:34.816Z,101303.18
2022-10-18T18:36:41.758Z,101302.70
2022-10-18T18:39:48.702Z,101301.86
2022-10-18T18:43:07.220Z,101299.75
2022-10-18T18:46:22.868Z,101301.15
2022-10-18T18:49:31.603Z,101304.01
2022-10-18T18:52:38.375Z,101296.06
2022-10-18T18:55:48.658Z,101299.21
2022-10-18T18:58:56.853Z,101297.23
2022-10-18T19:02:03.528Z,101297.10
2022-10-18T19:05:10.740Z,101296.52
2022-10-18T19:08:17.473Z,101303.67
2022-10-18T19:11:25.037Z,101300.25
2022-10-18T19:14:31.542Z,101302.20
2022-10-18T19:17:38.348Z,101304.70
2022-10-18T19:20:44.992Z,101302.90
2022-10-18T19:23:52.051Z,101306.44
2022-10-18T19:27:00.805Z,101308.20
2022-10-18T19:30:09.873Z,101309.39
2022-10-18T19:33:35.393Z,101315.23
2022-10-18T19:36:50.095Z,101314.09
2022-10-18T19:39:56.750Z,101317.86
2022-10-18T19:43:03.363Z,101320.01
2022-10-18T19:46:11.216Z,101323.56
2022-10-18T19:49:18.608Z,101323.31
2022-10-18T19:52:25.235Z,101324.95
2022-10-18T19:55:32.019Z,101329.23
2022-10-18T19:58:38.640Z,101329.44
2022-10-18T20:01:46.396Z,101335.23
2022-10-18T20:04:53.132Z,101344.66
2022-10-18T20:07:59.966Z,101345.89
2022-10-18T20:11:09.020Z,101347.94
2022-10-18T20:14:15.675Z,101350.03
2022-10-18T20:17:22.352Z,101350.91
2022-10-18T20:20:28.905Z,101353.64
2022-10-18T20:23:39.079Z,101348.95
2022-10-18T20:26:45.721Z,101349.05
2022-10-18T20:29:52.496Z,101346.50
2022-10-18T20:32:59.259Z,101345.50
2022-10-18T20:36:08.367Z,101350.30
2022-10-18T20:39:15.053Z,101350.70
2022-10-18T20:42:21.719Z,101352.54
2022-10-18T20:45:28.450Z,101348.96
2022-10-18T20:48:35.910Z,101350.84
2022-10-18T20:51:42.770Z,101354.95
2022-10-18T20:54:49.561Z,101354.84
2022-10-18T20:57:56.317Z,101357.64
2022-10-18T21:01:09.658Z,101359.71
2022-10-18T21:04:16.387Z,101363.98
2022-10-18T21:07:23.032Z,101365.14
2022-10-18T21:10:29.643Z,101365.17
2022-10-18T21:13:36.598Z,101361.01
2022-10-18T21:16:43.973Z,101357.68
2022-10-18T21:19:50.614Z,101355.74
2022-10-18T21:22:57.521Z,101358.08
2022-10-18T21:26:04.349Z,101355.95
2022-10-18T21:29:12.403Z,101350.66
2022-10-18T21:32:19.235Z,101349.83
2022-10-18T21:35:25.782Z,101346.31
2022-10-18T21:38:32.611Z,101338.11
2022-10-18T21:41:39.187Z,101336.09
2022-10-18T21:44:46.011Z,101336.48
2022-10-18T21:47:52.642Z,101332.28
2022-10-18T21:51:02.724Z,101328.66
2022-10-18T21:54:12.567Z,101322.25
2022-10-18T21:57:19.262Z,101323.17
2022-10-18T22:00:25.896Z,101315.45
2022-10-18T22:03:32.649Z,101312.92
2022-10-18T22:06:39.261Z,101309.17
2022-10-18T22:09:46.051Z,101302.74
2022-10-18T22:12:52.632Z,101301.31
2022-10-18T22:16:03.253Z,101297.83
2022-10-18T22:19:10.198Z,101294.77
2022-10-18T22:22:16.820Z,101291.69
2022-10-18T22:25:23.533Z,101289.48
2022-10-18T22:28:30.283Z,101279.02
2022-10-18T22:31:39.543Z,101274.52
2022-10-18T22:34:46.200Z,101270.19
2022-10-18T22:37:56.030Z,101265.05
2022-10-18T22:41:06.395Z,101264.22
2022-10-18T22:44:15.697Z,101260.16
2022-10-18T22:47:22.409Z,101259.36
2022-10-18T22:50:29.038Z,101256.02
2022-10-18T22:53:36.261Z,101256.77
2022-10-18T22:56:42.949Z,101258.42
2022-10-18T22:59:49.474Z,101255.54
2022-10-18T23:02:56.138Z,101253.54
2022-10-18T23:06:03.272Z,101258.12
2022-10-18T23:09:11.725Z,101260.89
2022-10-18T23:12:18.580Z,101261.55
2022-10-18T23:15:25.179Z,101260.08
2022-10-18T23:18:32.376Z,101266.75
2022-10-18T23:21:39.039Z,101266.66
2022-10-18T23:24:45.589Z,101265.91
2022-10-18T23:27:52.357Z,101267.05
2022-10-18T23:30:59.067Z,101263.27
2022-10-18T23:34:07.026Z,101264.79
2022-10-18T23:37:13.639Z,101268.80
2022-10-18T23:40:20.484Z,101262.94
2022-10-18T23:43:27.235Z,101261.34
2022-10-18T23:46:33.891Z,101255.48
2022-10-18T23:49:40.459Z,101264.80
2022-10-18T23:52:47.085Z,101266.73
2022-10-18T23:55:57.987Z,101257.67
2022-10-18T23:59:04.737Z,101258.81
